Time;durP1;ratioP1;P1;durP2;ratioP2;P2;SDS_P1;SDS_P2;PMS_P1;PMS_P2;Temp;Humidity;BMP_temperature;BMP_pressure;BME280_temperature;BME280_humidity;BME280_pressure;Samples;Min_cycle;Max_cycle;Signal;HPM_P1;HPM_P2
2022/07/15 00:01:53;;;;;;;19.77;3.40;;;;;;;18.69;67.26;94962.97;5041869;28;20629;-74
2022/07/15 00:04:19;;;;;;;9.73;3.20;;;;;;;18.67;67.72;94968.56;5037141;28;20351;-74
2022/07/15 00:06:44;;;;;;;15.32;3.53;;;;;;;18.70;67.73;94968.03;5031585;28;20237;-74
2022/07/15 00:09:10;;;;;;;6.07;3.30;;;;;;;18.43;67.73;94933.47;5031495;28;20172;-74
2022/07/15 00:11:35;;;;;;;9.68;3.42;;;;;;;18.66;68.15;94964.31;5031261;28;20180;-74
2022/07/15 00:14:01;;;;;;;8.05;3.13;;;;;;;18.65;68.05;94973.38;5031297;28;20175;-74
2022/07/15 00:16:26;;;;;;;8.70;3.15;;;;;;;18.56;68.29;94976.72;5031372;28;20175;-74
2022/07/15 00:18:52;;;;;;;5.60;3.05;;;;;;;18.56;68.47;94971.41;5024570;28;20878;-74
2022/07/15 00:21:17;;;;;;;6.35;3.08;;;;;;;18.54;68.49;94963.66;5031091;28;20628;-74
2022/07/15 00:23:43;;;;;;;7.57;3.70;;;;;;;18.42;68.66;94963.84;5031054;28;20258;-74
2022/07/15 00:26:09;;;;;;;8.30;3.85;;;;;;;18.50;68.40;94975.09;5035002;28;20189;-74
2022/07/15 00:28:34;;;;;;;9.07;4.15;;;;;;;18.43;68.64;94972.63;5039003;28;20175;-74
2022/07/15 00:31:00;;;;;;;8.00;3.70;;;;;;;18.37;69.01;94973.66;5030991;28;20282;-74
2022/07/15 00:33:25;;;;;;;9.30;4.28;;;;;;;18.32;69.21;94971.78;5029906;28;20190;-74
2022/07/15 00:35:51;;;;;;;9.63;4.07;;;;;;;18.24;69.55;94961.59;5030731;28;20653;-74
2022/07/15 00:38:17;;;;;;;11.43;4.32;;;;;;;18.34;69.36;94972.31;5030772;28;20176;-74
2022/07/15 00:40:45;;;;;;;11.13;4.93;;;;;;;18.35;69.33;94973.94;5030896;28;20222;-74
2022/07/15 00:43:11;;;;;;;11.18;4.68;;;;;;;18.41;68.76;94959.59;5041093;28;20637;-74
2022/07/15 00:45:37;;;;;;;11.10;4.85;;;;;;;18.30;69.29;94962.44;5032708;28;20230;-74
2022/07/15 00:48:03;;;;;;;8.85;3.90;;;;;;;18.30;69.52;94968.56;5041515;28;20214;-74
2022/07/15 00:50:30;;;;;;;9.32;4.68;;;;;;;18.22;69.94;94966.38;5027627;28;20198;-74
2022/07/15 00:53:01;;;;;;;11.00;4.15;;;;;;;18.24;69.71;94963.47;5025281;28;20175;-74
2022/07/15 00:55:30;;;;;;;10.93;5.00;;;;;;;18.13;69.64;94940.47;5030286;28;20175;-74
2022/07/15 00:58:02;;;;;;;10.50;4.53;;;;;;;18.18;69.77;94943.94;5030677;28;20720;-74
2022/07/15 01:00:28;;;;;;;10.85;4.10;;;;;;;17.90;70.04;94904.34;5029043;28;20176;-74
2022/07/15 01:02:54;;;;;;;8.20;4.25;;;;;;;18.09;69.90;94945.47;5030671;28;20223;-74
2022/07/15 01:05:21;;;;;;;9.50;4.05;;;;;;;18.05;70.05;94945.19;5030440;28;20207;-74
2022/07/15 01:07:49;;;;;;;9.63;3.58;;;;;;;17.98;70.37;94944.63;5025699;28;20176;-74
2022/07/15 01:10:15;;;;;;;10.57;3.22;;;;;;;17.94;69.98;94935.53;5030368;28;20590;-74
2022/07/15 01:12:40;;;;;;;6.32;3.28;;;;;;;17.83;70.14;94949.81;5030575;28;20253;-74
2022/07/15 01:15:07;;;;;;;6.85;2.50;;;;;;;17.81;70.50;94948.47;5030524;28;20172;-74
2022/07/15 01:17:32;;;;;;;6.20;3.35;;;;;;;17.78;70.85;94944.44;5030239;28;20180;-74
2022/07/15 01:19:58;;;;;;;5.25;3.08;;;;;;;17.77;70.80;94947.34;5030391;28;20179;-74
2022/07/15 01:22:25;;;;;;;5.50;2.83;;;;;;;17.67;71.12;94932.09;5030322;28;20594;-74
2022/07/15 01:24:51;;;;;;;8.77;2.55;;;;;;;17.70;70.70;94943.03;5027773;28;20211;-74
2022/07/15 01:27:16;;;;;;;10.27;2.63;;;;;;;17.67;70.83;94938.22;5025060;28;20171;-74
2022/07/15 01:29:42;;;;;;;5.03;2.60;;;;;;;17.56;70.80;94927.69;5030575;28;20179;-74
2022/07/15 01:32:07;;;;;;;10.05;2.92;;;;;;;17.63;70.88;94936.31;5034306;28;20644;-74
2022/07/15 01:34:33;;;;;;;7.28;2.33;;;;;;;17.25;71.11;94876.03;5034232;28;20176;-74
2022/07/15 01:36:58;;;;;;;5.15;2.40;;;;;;;17.64;70.92;94937.94;5034112;28;20182;-74
2022/07/15 01:39:23;;;;;;;3.08;2.50;;;;;;;17.63;70.95;94931.81;5034336;28;20180;-74
2022/07/15 01:41:49;;;;;;;5.75;2.30;;;;;;;17.59;71.05;94932.50;5034221;28;20179;-74
2022/07/15 01:44:14;;;;;;;4.15;2.20;;;;;;;17.56;71.28;94933.81;5032450;28;20203;-74
2022/07/15 01:46:40;;;;;;;6.90;2.40;;;;;;;17.51;71.57;94935.63;5034310;28;20176;-74
2022/07/15 01:51:50;;;;;;;3.28;2.33;;;;;;;17.50;71.59;94936.69;5034402;28;20210;-74
2022/07/15 01:54:16;;;;;;;6.13;2.50;;;;;;;17.50;71.39;94939.34;5033944;28;20171;-74
2022/07/15 01:56:42;;;;;;;3.42;2.42;;;;;;;17.44;71.88;94940.38;5034289;28;20183;-74
2022/07/15 01:59:08;;;;;;;2.72;2.50;;;;;;;17.40;72.15;94945.38;5033828;28;20577;-74
2022/07/15 02:01:34;;;;;;;4.38;3.00;;;;;;;17.20;71.83;94910.59;5030371;28;20176;-74
2022/07/15 02:03:59;;;;;;;4.20;2.80;;;;;;;17.39;71.93;94938.44;5030025;28;20726;-74
2022/07/15 02:06:25;;;;;;;6.22;2.08;;;;;;;17.35;72.02;94935.50;5033822;28;20648;-74
2022/07/15 02:08:51;;;;;;;6.53;2.20;;;;;;;17.24;72.16;94933.75;5015548;28;20183;-73
2022/07/15 02:11:16;;;;;;;3.72;1.98;;;;;;;17.16;72.48;94936.06;5015561;28;20180;-74
2022/07/15 02:13:41;;;;;;;8.20;2.63;;;;;;;17.15;72.79;94935.25;5033342;28;20185;-74
2022/07/15 02:16:07;;;;;;;3.35;2.28;;;;;;;17.13;72.87;94944.53;5033463;28;20896;-74
2022/07/15 02:18:33;;;;;;;4.07;2.50;;;;;;;16.93;72.91;94911.34;5027997;28;20645;-74
2022/07/15 02:20:59;;;;;;;14.02;4.97;;;;;;;17.08;72.98;94942.63;5033450;28;20168;-74
2022/07/15 02:23:24;;;;;;;17.55;7.50;;;;;;;17.06;73.26;94947.41;5033388;28;20544;-74
2022/07/15 02:25:49;;;;;;;9.25;5.55;;;;;;;17.09;73.17;94946.91;5033386;28;20587;-74
2022/07/15 02:28:15;;;;;;;20.42;8.27;;;;;;;17.07;72.94;94933.03;5033291;28;20184;-74
2022/07/15 02:30:43;;;;;;;8.35;5.30;;;;;;;17.14;72.81;94943.50;5033255;28;20187;-74
2022/07/15 02:33:09;;;;;;;28.33;15.98;;;;;;;17.13;72.84;94955.19;5033082;28;20183;-74
2022/07/15 02:35:37;;;;;;;14.70;8.63;;;;;;;17.12;72.66;94941.09;5026391;28;20564;-74
2022/07/15 02:38:03;;;;;;;9.40;3.17;;;;;;;17.12;72.70;94941.09;5053231;28;20175;-74
2022/07/15 02:40:30;;;;;;;7.75;4.55;;;;;;;17.17;72.20;94943.00;5052983;28;20171;-74
2022/07/15 02:42:58;;;;;;;10.82;4.32;;;;;;;17.19;72.51;94938.25;5052978;28;20217;-74
2022/07/15 02:45:26;;;;;;;9.13;4.47;;;;;;;17.20;72.57;94947.84;5052969;28;20575;-74
2022/07/15 02:47:51;;;;;;;10.77;3.75;;;;;;;17.19;72.37;94935.59;5052939;28;20210;-74
2022/07/15 02:50:18;;;;;;;8.90;2.53;;;;;;;17.15;72.16;94939.78;5034655;28;20184;-74
2022/07/15 02:52:44;;;;;;;4.60;2.80;;;;;;;17.03;72.45;94908.00;5031166;28;20175;-74
2022/07/15 02:55:10;;;;;;;11.35;2.88;;;;;;;17.16;72.43;94936.88;5015013;28;20637;-74
2022/07/15 02:57:37;;;;;;;11.52;3.55;;;;;;;17.14;72.54;94932.84;5014960;28;20233;-74
2022/07/15 03:00:09;;;;;;;12.50;6.82;;;;;;;17.15;72.34;94939.78;5032394;28;20179;-74
2022/07/15 03:02:35;;;;;;;27.77;14.30;;;;;;;17.15;72.22;94939.78;5032339;28;20603;-74
2022/07/15 03:05:00;;;;;;;17.30;9.70;;;;;;;17.13;72.35;94937.38;5032641;28;20207;-74
2022/07/15 03:07:28;;;;;;;10.55;6.25;;;;;;;17.06;72.46;94941.28;5032876;28;20203;-74
2022/07/15 03:09:54;;;;;;;7.30;4.43;;;;;;;17.04;72.29;94941.50;5014392;28;20172;-74
2022/07/15 03:12:19;;;;;;;11.18;3.83;;;;;;;16.86;72.21;94913.41;5045380;28;20305;-75
2022/07/15 03:14:44;;;;;;;18.10;7.93;;;;;;;16.94;72.42;94938.75;5035383;28;20247;-74
2022/07/15 03:17:10;;;;;;;16.92;9.15;;;;;;;17.01;72.10;94946.53;5031995;28;20172;-74
2022/07/15 03:19:35;;;;;;;23.27;13.02;;;;;;;16.80;71.45;94921.56;5038972;28;20159;-74
2022/07/15 03:22:01;;;;;;;14.75;7.22;;;;;;;16.95;71.60;94938.50;5046958;28;20171;-74
2022/07/15 03:24:26;;;;;;;20.73;7.90;;;;;;;16.96;71.82;94936.63;5039093;28;20668;-75
2022/07/15 03:26:51;;;;;;;17.52;7.50;;;;;;;17.00;71.74;94936.94;5031756;28;20172;-74
2022/07/15 03:29:17;;;;;;;6.55;3.33;;;;;;;16.75;71.31;94895.72;5051034;28;20183;-74
2022/07/15 03:31:43;;;;;;;6.15;2.85;;;;;;;17.01;71.01;94933.25;5032761;28;20176;-74
2022/07/15 03:34:10;;;;;;;9.32;3.45;;;;;;;16.96;71.50;94937.44;5031742;28;20252;-74
2022/07/15 03:36:37;;;;;;;7.50;4.13;;;;;;;17.03;71.56;94931.16;5031878;28;20176;-74
2022/07/15 03:39:03;;;;;;;10.15;3.35;;;;;;;17.13;71.14;94936.56;5031681;28;20180;-74
2022/07/15 03:41:29;;;;;;;7.60;2.92;;;;;;;17.22;70.80;94929.75;5034308;28;20194;-74
2022/07/15 03:43:54;;;;;;;7.95;3.13;;;;;;;17.34;70.60;94933.06;5037967;28;20629;-74
2022/07/15 03:46:19;;;;;;;4.68;2.60;;;;;;;17.44;70.45;94935.84;5031595;28;20203;-74
2022/07/15 03:48:45;;;;;;;6.38;2.92;;;;;;;17.59;70.17;94943.97;5030675;28;20179;-74
2022/07/15 03:51:10;;;;;;;9.02;2.50;;;;;;;17.73;68.62;94937.19;5026183;28;20179;-75
2022/07/15 03:53:36;;;;;;;6.40;2.70;;;;;;;17.83;68.79;94925.03;5029043;28;20180;-74
2022/07/15 03:56:02;;;;;;;4.05;2.17;;;;;;;18.06;67.92;94932.69;5041998;28;20262;-75
2022/07/15 03:58:27;;;;;;;8.50;2.10;;;;;;;18.25;67.56;94949.09;5015180;28;20263;-76
2022/07/15 04:00:53;;;;;;;3.58;2.33;;;;;;;18.23;66.96;94917.34;5029354;28;20611;-75
2022/07/15 04:03:18;;;;;;;8.70;2.20;;;;;;;18.35;66.46;94911.81;5041255;28;20218;-74
2022/07/15 04:05:44;;;;;;;4.88;2.50;;;;;;;18.64;66.16;94931.75;5033676;28;20208;-73
2022/07/15 04:08:09;;;;;;;8.50;2.22;;;;;;;18.95;64.86;94945.22;5031219;28;20176;-73
2022/07/15 04:10:35;;;;;;;7.90;2.10;;;;;;;19.00;63.04;94945.25;5030749;28;20191;-74
2022/07/15 04:13:01;;;;;;;7.15;2.20;;;;;;;18.94;63.41;94927.63;5042641;28;20178;-76
2022/07/15 04:15:26;;;;;;;3.85;2.38;;;;;;;19.12;62.93;94937.81;5037690;28;20657;-74
2022/07/15 04:17:52;;;;;;;3.17;1.70;;;;;;;19.11;62.37;94920.22;5030785;28;20175;-74
2022/07/15 04:20:17;;;;;;;7.22;2.13;;;;;;;19.34;62.62;94927.75;5028508;28;20253;-74
2022/07/15 04:22:46;;;;;;;9.82;5.13;;;;;;;19.38;62.11;94920.00;5037063;28;20214;-75
2022/07/15 04:25:15;;;;;;;10.30;7.18;;;;;;;19.76;61.25;94948.16;5036799;28;20223;-73
2022/07/15 04:27:42;;;;;;;8.23;4.47;;;;;;;19.78;60.67;94928.13;5031190;28;20570;-74
2022/07/15 04:30:09;;;;;;;12.15;3.47;;;;;;;20.15;61.02;94951.13;5029861;28;20241;-74
2022/07/15 04:32:35;;;;;;;9.63;6.00;;;;;;;20.33;59.67;94953.22;5031184;28;20176;-75
2022/07/15 04:35:01;;;;;;;19.52;9.40;;;;;;;20.51;59.39;94952.69;5046566;28;20171;-74
2022/07/15 04:37:27;;;;;;;8.18;5.32;;;;;;;20.73;59.38;94947.06;5044716;28;20168;-74
2022/07/15 04:39:54;;;;;;;12.82;7.35;;;;;;;20.68;57.46;94912.25;5026156;28;20176;-74
2022/07/15 04:42:20;;;;;;;12.35;5.65;;;;;;;21.04;57.64;94937.03;5045523;28;20171;-74
2022/07/15 04:44:46;;;;;;;13.75;5.50;;;;;;;21.26;56.22;94952.78;5050729;28;20199;-74
2022/07/15 04:47:12;;;;;;;3.53;2.95;;;;;;;21.45;57.24;94956.41;5050811;28;20175;-74
2022/07/15 04:52:22;;;;;;;21.80;11.52;;;;;;;21.97;55.02;94949.66;5031059;28;20245;-73
2022/07/15 04:54:47;;;;;;;7.85;3.53;;;;;;;22.28;53.48;94952.94;5029978;28;20584;-74
2022/07/15 04:57:13;;;;;;;6.45;2.95;;;;;;;22.54;51.99;94947.06;5030804;28;20254;-74
2022/07/15 04:59:39;;;;;;;6.00;2.90;;;;;;;23.00;50.96;94951.19;5030453;28;20206;-73
2022/07/15 05:02:04;;;;;;;8.32;3.05;;;;;;;23.26;50.18;94953.25;5030184;28;20180;-74
2022/07/15 05:04:30;;;;;;;7.53;3.35;;;;;;;23.60;50.03;94957.72;5029113;28;20606;-74
2022/07/15 05:06:56;;;;;;;14.18;8.90;;;;;;;23.97;48.97;94954.22;5029558;28;20975;-73
2022/07/15 05:09:21;;;;;;;8.98;2.38;;;;;;;24.34;49.24;94956.88;5011524;28;20199;-74
2022/07/15 05:11:47;;;;;;;8.02;2.97;;;;;;;24.70;45.95;94956.28;5029386;28;20251;-74
2022/07/15 05:14:12;;;;;;;4.22;2.92;;;;;;;25.06;45.92;94953.75;5028878;28;20177;-74
2022/07/15 05:16:37;;;;;;;6.85;3.25;;;;;;;25.43;44.46;94956.22;5029521;28;20198;-74
2022/07/15 05:19:03;;;;;;;14.82;8.00;;;;;;;25.87;43.25;94958.25;5029240;28;20180;-74
2022/07/15 05:21:29;;;;;;;14.40;5.85;;;;;;;26.38;43.75;94950.91;5030090;28;20183;-74
2022/07/15 05:23:55;;;;;;;4.70;3.35;;;;;;;26.72;42.46;94950.31;5028299;28;20808;-74
2022/07/15 05:26:21;;;;;;;10.57;3.10;;;;;;;26.80;40.84;94949.56;5030412;28;20190;-74
2022/07/15 05:28:46;;;;;;;5.80;2.92;;;;;;;27.05;40.16;94957.00;5030530;28;20180;-74
2022/07/15 05:31:12;;;;;;;16.13;6.00;;;;;;;27.27;40.07;94948.81;5029560;28;20188;-74
2022/07/15 05:33:37;;;;;;;5.50;3.15;;;;;;;27.62;40.41;94955.13;5050196;28;20175;-74
2022/07/15 05:36:04;;;;;;;7.47;2.85;;;;;;;27.88;38.27;94955.16;5044655;28;20637;-74
2022/07/15 05:38:29;;;;;;;3.55;3.03;;;;;;;28.63;37.71;94950.38;5049993;28;20175;-74
2022/07/15 05:40:54;;;;;;;6.30;2.30;;;;;;;29.14;37.21;94944.03;5049938;28;20183;-74
2022/07/15 05:43:20;;;;;;;6.38;3.65;;;;;;;29.61;36.83;94948.25;5050278;28;20683;-74
2022/07/15 05:45:46;;;;;;;7.57;3.92;;;;;;;29.97;35.97;94926.00;5028582;28;20199;-74
2022/07/15 05:48:11;;;;;;;5.20;3.10;;;;;;;30.28;35.35;94955.44;5030174;28;20645;-74
2022/07/15 05:50:37;;;;;;;6.93;3.90;;;;;;;30.61;34.76;94949.28;5030150;28;20179;-74
2022/07/15 05:53:03;;;;;;;4.25;2.55;;;;;;;30.71;33.95;94949.63;5030057;28;20625;-74
2022/07/15 05:55:29;;;;;;;5.05;3.10;;;;;;;30.72;33.67;94945.00;5034550;28;20175;-74
2022/07/15 05:57:55;;;;;;;6.60;2.97;;;;;;;30.72;33.57;94947.72;5045231;28;20188;-74
2022/07/15 06:00:20;;;;;;;9.48;2.70;;;;;;;30.48;33.93;94934.03;5030023;28;20175;-74
2022/07/15 06:02:46;;;;;;;4.93;2.47;;;;;;;29.97;33.66;94925.22;5028977;28;20560;-74
2022/07/15 06:05:11;;;;;;;5.00;1.83;;;;;;;29.99;35.74;94944.69;5023913;28;20207;-74
2022/07/15 06:07:37;;;;;;;6.18;2.78;;;;;;;29.84;36.61;94942.53;5029736;28;20179;-74
2022/07/15 06:10:04;;;;;;;5.88;2.53;;;;;;;29.90;37.11;94954.78;5029943;28;20262;-74
2022/07/15 06:12:29;;;;;;;5.97;2.50;;;;;;;29.90;35.46;94947.44;5046114;28;20171;-74
2022/07/15 06:14:55;;;;;;;8.25;2.90;;;;;;;29.81;35.38;94951.34;5049839;28;20205;-74
2022/07/15 06:17:20;;;;;;;6.68;2.55;;;;;;;29.71;36.90;94949.00;5045916;28;20226;-74
2022/07/15 06:19:46;;;;;;;5.97;2.85;;;;;;;29.82;36.08;94948.28;5033407;28;20194;-74
2022/07/15 06:22:11;;;;;;;8.18;3.00;;;;;;;29.90;35.74;94941.22;5029054;28;20237;-74
2022/07/15 06:24:37;;;;;;;6.47;2.40;;;;;;;29.95;36.50;94939.09;5049373;28;20301;-74
2022/07/15 06:27:03;;;;;;;9.45;2.20;;;;;;;29.98;36.80;94946.59;5053149;28;20185;-74
2022/07/15 06:29:28;;;;;;;7.70;2.83;;;;;;;30.05;37.53;94948.00;5053123;28;20170;-74
2022/07/15 06:31:54;;;;;;;3.95;2.28;;;;;;;30.01;35.84;94951.34;5032925;28;20588;-74
2022/07/15 06:34:19;;;;;;;7.65;2.75;;;;;;;29.73;35.68;94944.03;5045477;28;20173;-74
2022/07/15 06:36:44;;;;;;;8.68;2.40;;;;;;;29.39;38.23;94953.19;5053176;28;20171;-74
2022/07/15 06:39:11;;;;;;;7.18;2.80;;;;;;;29.26;37.72;94952.25;5052713;28;20671;-74
2022/07/15 06:41:36;;;;;;;5.85;2.45;;;;;;;29.20;39.30;94946.22;5040236;28;20176;-75
2022/07/15 06:44:04;;;;;;;9.63;2.80;;;;;;;29.06;37.83;94950.28;5033056;28;20241;-75
2022/07/15 06:46:29;;;;;;;6.95;2.83;;;;;;;28.98;38.98;94926.69;5033154;28;20168;-75
2022/07/15 06:48:55;;;;;;;4.15;2.35;;;;;;;29.16;38.89;94939.84;5033071;28;20668;-75
2022/07/15 06:51:21;;;;;;;5.90;2.58;;;;;;;29.12;37.40;94938.13;5032833;28;20187;-75
2022/07/15 06:53:47;;;;;;;6.82;3.50;;;;;;;29.10;38.71;94945.78;5033341;28;20282;-75
2022/07/15 06:56:13;;;;;;;15.73;2.90;;;;;;;29.08;39.70;94904.63;5033255;28;20263;-76
2022/07/15 06:58:39;;;;;;;10.20;2.95;;;;;;;29.46;38.73;94940.69;5032732;28;20183;-75
2022/07/15 07:01:04;;;;;;;4.53;2.65;;;;;;;29.57;38.29;94924.84;5032726;28;20266;-76
2022/07/15 07:03:30;;;;;;;4.10;2.45;;;;;;;29.68;37.24;94936.88;5032412;28;20306;-76
2022/07/15 07:05:55;;;;;;;4.72;2.58;;;;;;;29.68;36.63;94936.88;5038901;28;20203;-75
2022/07/15 07:08:20;;;;;;;6.63;2.72;;;;;;;29.39;35.93;94916.00;5033932;28;20225;-76
2022/07/15 07:10:46;;;;;;;5.38;2.42;;;;;;;29.20;37.16;94931.88;5034778;28;20185;-76
2022/07/15 07:13:12;;;;;;;10.77;3.38;;;;;;;29.50;37.21;94930.75;5031760;28;20194;-75
2022/07/15 07:15:38;;;;;;;7.00;2.90;;;;;;;29.51;35.77;94937.78;5032671;28;20183;-75
2022/07/15 07:18:04;;;;;;;8.63;2.97;;;;;;;29.58;38.14;94935.34;5028988;28;20171;-75
2022/07/15 07:20:29;;;;;;;9.70;2.53;;;;;;;29.68;36.67;94930.66;5032531;28;20180;-75
2022/07/15 07:22:57;;;;;;;13.48;3.10;;;;;;;29.67;36.32;94926.34;5013803;28;20190;-75
2022/07/15 07:25:22;;;;;;;10.82;2.97;;;;;;;29.90;37.77;94931.13;5038058;28;20192;-75
2022/07/15 07:27:48;;;;;;;9.95;3.03;;;;;;;30.15;36.58;94925.84;5041006;28;20696;-75
2022/07/15 07:30:13;;;;;;;7.28;2.70;;;;;;;30.11;35.99;94922.19;5032083;28;20267;-75
2022/07/15 07:32:39;;;;;;;6.20;2.72;;;;;;;30.03;37.17;94923.88;5031491;28;20216;-75
2022/07/15 07:35:04;;;;;;;11.15;2.75;;;;;;;30.13;36.17;94923.47;5031491;28;20218;-75
2022/07/15 07:37:34;;;;;;;8.73;2.63;;;;;;;30.61;35.38;94927.53;5040614;28;20180;-74
2022/07/15 07:39:59;;;;;;;8.35;2.47;;;;;;;31.00;34.04;94921.47;5025824;28;20555;-75
2022/07/15 07:42:25;;;;;;;7.70;2.50;;;;;;;31.22;33.74;94922.22;5014829;28;20270;-74
2022/07/15 07:44:50;;;;;;;7.40;2.42;;;;;;;31.40;33.84;94934.44;5048649;28;20286;-74
2022/07/15 07:47:15;;;;;;;5.03;2.50;;;;;;;31.41;34.07;94903.38;5036155;28;20591;-74
2022/07/15 07:49:41;;;;;;;12.88;2.70;;;;;;;30.91;34.39;94928.16;5043830;28;20330;-75
2022/07/15 07:52:07;;;;;;;13.73;3.00;;;;;;;30.38;35.67;94927.06;5051344;28;20262;-74
2022/07/15 07:54:33;;;;;;;6.25;2.65;;;;;;;30.64;36.15;94922.22;5041449;28;20174;-74
2022/07/15 07:56:58;;;;;;;5.95;2.60;;;;;;;31.16;34.74;94926.28;5040924;28;20183;-74
2022/07/15 07:59:23;;;;;;;4.57;2.50;;;;;;;31.46;32.74;94900.44;5019398;28;20687;-74
2022/07/15 08:01:49;;;;;;;4.13;2.17;;;;;;;31.57;33.79;94917.09;5039979;28;20198;-74
2022/07/15 08:04:15;;;;;;;6.18;2.33;;;;;;;31.94;34.19;94923.28;5050511;28;20234;-75
2022/07/15 08:06:41;;;;;;;5.57;2.13;;;;;;;31.86;32.27;94906.72;5019512;28;20233;-74
2022/07/15 08:09:06;;;;;;;8.35;2.63;;;;;;;31.82;32.23;94914.03;5041593;28;20236;-74
2022/07/15 08:11:32;;;;;;;6.45;2.47;;;;;;;31.50;32.19;94918.44;5050763;28;20174;-75
2022/07/15 08:13:57;;;;;;;7.82;3.22;;;;;;;31.32;32.15;94911.66;5037077;28;20176;-74
2022/07/15 08:16:23;;;;;;;9.93;2.70;;;;;;;30.99;32.36;94889.19;5029671;28;20210;-75
2022/07/15 08:18:48;;;;;;;8.43;2.45;;;;;;;30.86;33.17;94888.38;5035072;28;20697;-75
2022/07/15 08:21:14;;;;;;;5.90;2.08;;;;;;;30.79;34.21;94907.16;5027165;28;20184;-76
2022/07/15 08:23:40;;;;;;;8.68;2.40;;;;;;;30.89;35.12;94906.72;5026409;28;20645;-75
2022/07/15 08:26:07;;;;;;;8.18;2.47;;;;;;;31.11;34.62;94892.75;5044040;28;20230;-75
2022/07/15 08:28:33;;;;;;;8.25;2.65;;;;;;;31.48;34.65;94896.22;5049585;28;20187;-76
2022/07/15 08:30:59;;;;;;;7.07;2.45;;;;;;;31.99;33.78;94907.50;5039482;28;20187;-75
2022/07/15 08:33:24;;;;;;;11.68;2.85;;;;;;;32.24;31.14;94916.41;5025216;28;20211;-75
2022/07/15 08:35:50;;;;;;;6.80;2.85;;;;;;;32.20;30.55;94902.69;5032589;28;20569;-74
2022/07/15 08:38:15;;;;;;;6.80;2.72;;;;;;;32.36;32.67;94901.94;5043688;28;20172;-74
2022/07/15 08:40:42;;;;;;;4.85;2.20;;;;;;;32.17;31.24;94867.94;5028770;28;20569;-75
2022/07/15 08:43:10;;;;;;;11.77;2.42;;;;;;;32.65;31.93;94898.84;5042789;28;20318;-75
2022/07/15 08:45:37;;;;;;;9.77;2.35;;;;;;;32.65;29.37;94890.66;5028929;28;20248;-75
2022/07/15 08:48:04;;;;;;;13.07;2.33;;;;;;;32.40;28.69;94894.66;5031944;28;20179;-75
2022/07/15 08:50:31;;;;;;;5.28;2.60;;;;;;;32.34;31.22;94899.56;5026139;28;20561;-75
2022/07/15 08:52:57;;;;;;;6.57;2.30;;;;;;;32.37;32.77;94892.63;5026253;28;20191;-75
2022/07/15 08:55:23;;;;;;;7.75;2.10;;;;;;;32.62;31.38;94888.63;5010692;28;20176;-74
2022/07/15 08:57:50;;;;;;;11.35;2.53;;;;;;;32.89;31.14;94895.19;5029026;28;20190;-73
2022/07/15 09:00:17;;;;;;;9.70;2.25;;;;;;;32.86;30.98;94869.41;5028494;28;20649;-73
2022/07/15 09:02:43;;;;;;;7.18;2.90;;;;;;;33.10;28.92;94898.44;5030141;28;20190;-74
2022/07/15 09:05:21;;;;;;;9.10;2.47;;;;;;;32.83;28.31;94893.88;5026890;28;20207;-74
2022/07/15 09:08:10;;;;;;;4.28;2.00;;;;;;;32.45;29.71;94889.72;5027463;28;20649;-72
2022/07/15 09:10:48;;;;;;;6.75;2.40;;;;;;;32.00;29.70;94887.28;5031506;28;20184;-73
2022/07/15 09:13:28;;;;;;;7.80;2.53;;;;;;;31.76;31.19;94881.91;5028767;28;20245;-73
2022/07/15 09:15:56;;;;;;;4.75;2.25;;;;;;;31.59;30.89;94877.50;5043338;28;20174;-75
2022/07/15 09:18:26;;;;;;;3.97;2.00;;;;;;;31.58;30.06;94877.81;5039675;28;20179;-76
2022/07/15 09:20:52;;;;;;;9.88;1.98;;;;;;;31.21;30.41;94861.56;5038434;28;20178;-73
2022/07/15 09:23:29;;;;;;;5.63;2.35;;;;;;;31.15;30.89;94881.94;5043481;28;20293;-74
2022/07/15 09:26:21;;;;;;;7.25;1.88;;;;;;;30.86;30.71;94874.00;5028597;28;20302;-72
2022/07/15 09:28:46;;;;;;;2.53;1.70;;;;;;;30.32;31.49;94871.34;4995303;28;20202;-74
2022/07/15 09:34:01;;;;;;;3.20;2.22;;;;;;;29.97;32.25;94876.31;5029903;28;20652;-74
2022/07/15 09:36:31;;;;;;;4.28;1.95;;;;;;;30.15;33.09;94869.59;5021213;28;20184;-74
2022/07/15 09:39:00;;;;;;;4.88;1.73;;;;;;;30.37;32.06;94869.22;5027568;28;20191;-74
2022/07/15 09:41:25;;;;;;;7.30;1.98;;;;;;;30.30;30.69;94877.13;5024334;28;20672;-74
2022/07/15 09:44:06;;;;;;;3.70;1.55;;;;;;;30.45;31.79;94872.97;5029179;28;20207;-74
2022/07/15 09:46:54;;;;;;;8.70;1.85;;;;;;;30.56;31.03;94871.44;5017872;28;20168;-74
2022/07/15 09:49:23;;;;;;;11.90;1.90;;;;;;;30.69;33.17;94872.28;5026556;28;20178;-75
2022/07/15 09:51:54;;;;;;;5.22;2.30;;;;;;;30.86;32.04;94869.34;5027813;28;20168;-73
2022/07/15 09:54:21;;;;;;;15.82;2.20;;;;;;;30.93;32.53;94863.34;5022764;28;20163;-73
2022/07/15 09:56:48;;;;;;;1.88;1.70;;;;;;;30.92;32.73;94851.66;5042039;28;20676;-74
2022/07/15 09:59:15;;;;;;;3.70;1.75;;;;;;;31.21;31.28;94863.50;5024994;28;20703;-75
2022/07/15 10:01:42;;;;;;;2.92;1.58;;;;;;;30.84;29.44;94862.66;5029906;28;20254;-73
2022/07/15 10:04:09;;;;;;;6.95;2.15;;;;;;;30.54;30.60;94864.75;5026295;28;20224;-73
2022/07/15 10:06:37;;;;;;;6.95;1.52;;;;;;;30.57;33.13;94856.72;5030354;28;20183;-74
2022/07/15 10:09:05;;;;;;;3.05;1.65;;;;;;;30.77;31.00;94865.94;5031067;28;20173;-73
2022/07/15 10:11:35;;;;;;;2.80;1.75;;;;;;;30.90;30.12;94856.66;5030264;28;20171;-74
2022/07/15 10:14:20;;;;;;;2.83;1.45;;;;;;;30.89;29.57;94857.78;5033492;28;20175;-74
2022/07/15 10:17:13;;;;;;;6.28;2.15;;;;;;;30.74;31.60;94861.16;5029636;28;20256;-74
2022/07/15 10:19:48;;;;;;;2.15;1.40;;;;;;;30.78;32.02;94862.09;5023437;28;20545;-74
2022/07/15 10:22:34;;;;;;;5.30;1.50;;;;;;;30.54;30.92;94853.88;5033452;28;20186;-74
2022/07/15 10:25:11;;;;;;;6.53;1.77;;;;;;;30.64;32.54;94853.44;4987458;28;20196;-74
2022/07/15 10:28:19;;;;;;;6.07;1.50;;;;;;;30.56;29.39;94857.84;5034271;28;20221;-75
2022/07/15 10:30:45;;;;;;;5.07;1.88;;;;;;;30.42;29.67;94826.66;4957903;28;20181;-75
2022/07/15 10:33:18;;;;;;;2.55;1.40;;;;;;;30.38;29.71;94843.63;5016856;28;20188;-74
2022/07/15 10:35:53;;;;;;;3.50;1.70;;;;;;;30.38;29.15;94851.78;5034737;28;20198;-74
2022/07/15 10:38:33;;;;;;;5.90;1.83;;;;;;;30.37;31.79;94841.25;5007174;28;20175;-74
2022/07/15 10:41:14;;;;;;;8.57;1.83;;;;;;;30.42;30.67;94834.81;5025103;28;20187;-73
2022/07/15 10:43:54;;;;;;;2.83;1.60;;;;;;;30.33;31.57;94841.16;5025119;28;20164;-74
2022/07/15 10:46:27;;;;;;;4.05;1.30;;;;;;;30.29;29.48;94839.41;5027662;28;20238;-74
2022/07/15 10:48:58;;;;;;;3.55;1.73;;;;;;;30.21;29.48;94827.50;5033642;28;20172;-73
2022/07/15 10:51:36;;;;;;;4.95;1.55;;;;;;;30.30;30.84;94830.13;5033046;28;20184;-74
2022/07/15 10:54:05;;;;;;;2.22;1.50;;;;;;;30.32;30.81;94825.16;5029237;28;20179;-74
2022/07/15 10:56:34;;;;;;;4.32;1.38;;;;;;;30.28;29.34;94826.97;5023089;28;20169;-73
2022/07/15 10:59:09;;;;;;;1.42;1.33;;;;;;;29.79;30.68;94821.34;5025140;28;20275;-74
2022/07/15 11:01:36;;;;;;;2.50;1.50;;;;;;;29.75;31.49;94816.94;5019030;28;20163;-74
2022/07/15 11:04:20;;;;;;;4.53;1.58;;;;;;;29.85;29.44;94813.78;5024408;28;20230;-74
2022/07/15 11:07:10;;;;;;;4.63;1.45;;;;;;;30.06;29.87;94817.28;5032964;28;20646;-74
2022/07/15 11:09:58;;;;;;;2.35;1.13;;;;;;;30.30;29.24;94813.84;5035877;28;20289;-75
2022/07/15 11:12:29;;;;;;;4.28;1.60;;;;;;;30.35;29.48;94808.22;5052657;28;20279;-74
2022/07/15 11:15:02;;;;;;;2.05;1.80;;;;;;;30.38;30.26;94811.03;5026849;28;20251;-75
2022/07/15 11:17:28;;;;;;;3.88;1.70;;;;;;;30.38;28.93;94810.22;5004742;28;20178;-75
2022/07/15 11:19:56;;;;;;;1.77;1.45;;;;;;;30.33;28.17;94813.97;5022132;28;20181;-74
2022/07/15 11:22:24;;;;;;;4.22;2.05;;;;;;;30.29;28.47;94801.38;5025630;28;20176;-73
2022/07/15 11:24:52;;;;;;;4.13;1.85;;;;;;;30.10;30.82;94772.03;5023404;28;20616;-74
2022/07/15 11:27:19;;;;;;;2.67;1.50;;;;;;;30.51;28.82;94802.91;5025715;28;20171;-75
2022/07/15 11:29:51;;;;;;;8.70;2.10;;;;;;;30.31;27.52;94799.13;5044886;28;20171;-75
2022/07/15 11:32:20;;;;;;;1.90;1.40;;;;;;;30.21;28.71;94805.00;5036017;28;20176;-76
2022/07/15 11:34:49;;;;;;;2.15;1.45;;;;;;;30.19;28.52;94799.88;5033863;28;20183;-75
2022/07/15 11:37:24;;;;;;;4.47;1.55;;;;;;;30.17;29.68;94766.06;5028953;28;20180;-79
2022/07/15 11:40:03;;;;;;;6.13;3.13;;;;;;;30.27;29.88;94758.25;5037817;28;20246;-75
2022/07/15 11:45:30;;;;;;;1.63;1.40;;;;;;;30.74;27.23;94779.59;5023147;28;20203;-75